Time;durP1;ratioP1;P1;durP2;ratioP2;P2;SDS_P1;SDS_P2;PMS_P1;PMS_P2;Temp;Humidity;BMP_temperature;BMP_pressure;BME280_temperature;BME280_humidity;BME280_pressure;Samples;Min_cycle;Max_cycle;Signal;HPM_P1;HPM_P2
2023/05/27 00:00:02;;;;;;;7.18;3.78;;;;;;;;;;5002573;28;20501;-81
2023/05/27 00:02:28;;;;;;;8.35;3.83;;;;;;;;;;5000928;28;20050;-82
2023/05/27 00:04:54;;;;;;;7.35;3.42;;;;;;;;;;5004769;28;20040;-80
2023/05/27 00:07:20;;;;;;;9.55;3.60;;;;;;;;;;5005853;28;20053;-81
2023/05/27 00:09:46;;;;;;;6.95;4.03;;;;;;;;;;5006760;28;20506;-82
2023/05/27 00:12:12;;;;;;;10.07;3.33;;;;;;;;;;4991501;28;20394;-81
2023/05/27 00:14:38;;;;;;;11.20;3.50;;;;;;;;;;5003645;28;20057;-82
2023/05/27 00:17:04;;;;;;;9.93;4.38;;;;;;;;;;4995641;28;20037;-82
2023/05/27 00:19:31;;;;;;;8.23;4.00;;;;;;;;;;5014035;28;20866;-81
2023/05/27 00:21:57;;;;;;;11.80;3.95;;;;;;;;;;5013305;28;20045;-81
2023/05/27 00:24:23;;;;;;;11.98;4.07;;;;;;;;;;5013811;28;20061;-82
2023/05/27 00:26:49;;;;;;;9.52;3.65;;;;;;;;;;5003398;28;20049;-81
2023/05/27 00:29:18;;;;;;;8.13;3.70;;;;;;;;;;4995430;28;20085;-82
2023/05/27 00:31:44;;;;;;;11.77;4.43;;;;;;;;;;4993838;28;20042;-82
2023/05/27 00:34:10;;;;;;;10.27;3.75;;;;;;;;;;5009194;28;20056;-82
2023/05/27 00:36:36;;;;;;;8.60;3.80;;;;;;;;;;5009104;28;20268;-82
2023/05/27 00:39:03;;;;;;;9.30;3.80;;;;;;;;;;4997337;28;20052;-82
2023/05/27 00:41:29;;;;;;;9.57;4.40;;;;;;;;;;5011471;28;20481;-81
2023/05/27 00:43:58;;;;;;;9.30;3.72;;;;;;;;;;4998452;28;20133;-82
2023/05/27 00:46:24;;;;;;;7.85;3.38;;;;;;;;;;4993521;28;20058;-82
2023/05/27 00:48:51;;;;;;;8.20;3.88;;;;;;;;;;4999639;28;20145;-83
2023/05/27 00:51:17;;;;;;;7.47;4.05;;;;;;;;;;4992291;28;20054;-82
2023/05/27 00:53:44;;;;;;;8.55;3.47;;;;;;;;;;5008724;28;20140;-82
2023/05/27 00:56:11;;;;;;;8.40;3.72;;;;;;;;;;4994457;28;20471;-82
2023/05/27 00:58:37;;;;;;;6.28;3.47;;;;;;;;;;5012579;28;20419;-82
2023/05/27 01:01:04;;;;;;;10.65;3.78;;;;;;;;;;5009935;28;20037;-82
2023/05/27 01:03:34;;;;;;;9.23;3.80;;;;;;;;;;5000028;28;20402;-82
2023/05/27 01:06:09;;;;;;;8.45;3.28;;;;;;;;;;5001985;28;20077;-81
2023/05/27 01:08:37;;;;;;;12.50;4.20;;;;;;;;;;5006327;28;20048;-82
2023/05/27 01:11:05;;;;;;;12.90;4.10;;;;;;;;;;5013856;28;20180;-82
2023/05/27 01:13:31;;;;;;;9.88;3.50;;;;;;;;;;5014014;28;20050;-82
2023/05/27 01:15:59;;;;;;;8.52;3.40;;;;;;;;;;4996983;28;20049;-82
2023/05/27 01:18:30;;;;;;;9.07;3.80;;;;;;;;;;5012700;28;20033;-82
2023/05/27 01:21:00;;;;;;;13.27;4.03;;;;;;;;;;5012086;28;20054;-82
2023/05/27 01:23:27;;;;;;;9.10;4.03;;;;;;;;;;5011250;28;20058;-82
2023/05/27 01:25:53;;;;;;;9.73;4.10;;;;;;;;;;5013676;28;20497;-82
2023/05/27 01:28:19;;;;;;;13.35;4.20;;;;;;;;;;5013189;28;20053;-83
2023/05/27 01:30:45;;;;;;;10.48;3.90;;;;;;;;;;4996817;28;20046;-82
2023/05/27 01:33:16;;;;;;;12.18;3.80;;;;;;;;;;4998379;28;20064;-82
2023/05/27 01:35:49;;;;;;;9.88;3.92;;;;;;;;;;5021408;28;20046;-83
2023/05/27 01:38:17;;;;;;;9.30;4.43;;;;;;;;;;5003199;28;20046;-82
2023/05/27 01:40:45;;;;;;;8.85;3.90;;;;;;;;;;4992531;28;20054;-82
2023/05/27 01:43:11;;;;;;;11.73;3.75;;;;;;;;;;4993535;28;20058;-82
2023/05/27 01:45:38;;;;;;;12.25;4.32;;;;;;;;;;5012597;28;20057;-83
2023/05/27 01:48:04;;;;;;;9.32;4.50;;;;;;;;;;5012808;28;20108;-83
2023/05/27 01:50:30;;;;;;;12.50;3.88;;;;;;;;;;5010704;28;20046;-82
2023/05/27 01:52:57;;;;;;;9.63;3.80;;;;;;;;;;5004447;28;20046;-82
2023/05/27 01:55:23;;;;;;;9.77;4.13;;;;;;;;;;4993480;28;20121;-82
2023/05/27 01:57:49;;;;;;;9.93;4.20;;;;;;;;;;4991850;28;20054;-83
2023/05/27 02:00:15;;;;;;;9.82;3.83;;;;;;;;;;4992355;28;20042;-82
2023/05/27 02:02:41;;;;;;;9.52;3.95;;;;;;;;;;5011095;28;20049;-83
2023/05/27 02:05:08;;;;;;;10.13;4.00;;;;;;;;;;5012130;28;20038;-81
2023/05/27 02:07:34;;;;;;;9.85;3.72;;;;;;;;;;5009510;28;20048;-82
2023/05/27 02:10:00;;;;;;;11.63;4.10;;;;;;;;;;5020975;28;20088;-82
2023/05/27 02:12:26;;;;;;;8.73;3.60;;;;;;;;;;5002815;28;20034;-82
2023/05/27 02:14:52;;;;;;;14.70;4.35;;;;;;;;;;5009591;28;20056;-82
2023/05/27 02:17:18;;;;;;;8.35;4.10;;;;;;;;;;5006531;28;20030;-82
2023/05/27 02:19:45;;;;;;;10.00;3.78;;;;;;;;;;5011572;28;20045;-83
2023/05/27 02:22:11;;;;;;;10.38;4.60;;;;;;;;;;5008268;28;20046;-82
2023/05/27 02:24:37;;;;;;;12.63;4.38;;;;;;;;;;4999917;28;20575;-82
2023/05/27 02:27:03;;;;;;;14.00;5.45;;;;;;;;;;5025308;28;20093;-82
2023/05/27 02:29:29;;;;;;;8.88;4.10;;;;;;;;;;5009354;28;20386;-81
2023/05/27 02:31:55;;;;;;;10.35;3.95;;;;;;;;;;5026057;28;20042;-82
2023/05/27 02:34:21;;;;;;;8.02;3.88;;;;;;;;;;5025971;28;20116;-82
2023/05/27 02:36:47;;;;;;;10.52;3.78;;;;;;;;;;5000223;28;20090;-82
2023/05/27 02:39:13;;;;;;;6.00;3.50;;;;;;;;;;5000821;28;20091;-82
2023/05/27 02:41:40;;;;;;;6.90;3.80;;;;;;;;;;5025385;28;20516;-82
2023/05/27 02:44:06;;;;;;;8.15;3.95;;;;;;;;;;5011929;28;20049;-82
2023/05/27 02:46:32;;;;;;;9.07;4.20;;;;;;;;;;5005521;28;20081;-82
2023/05/27 02:48:58;;;;;;;13.48;4.40;;;;;;;;;;4992509;28;20035;-83
2023/05/27 02:51:24;;;;;;;12.00;4.90;;;;;;;;;;5008614;28;20058;-82
2023/05/27 02:53:50;;;;;;;13.40;4.32;;;;;;;;;;5008914;28;20054;-83
2023/05/27 02:56:17;;;;;;;10.35;4.43;;;;;;;;;;5009624;28;20077;-83
2023/05/27 02:58:43;;;;;;;8.68;3.90;;;;;;;;;;4999760;28;20535;-83
2023/05/27 03:01:09;;;;;;;7.95;4.40;;;;;;;;;;5024012;28;20121;-82
2023/05/27 03:03:35;;;;;;;11.00;4.45;;;;;;;;;;5010641;28;20045;-82
2023/05/27 03:06:01;;;;;;;12.00;4.97;;;;;;;;;;5001187;28;20046;-82
2023/05/27 03:08:27;;;;;;;7.53;4.25;;;;;;;;;;5002916;28;20505;-82
2023/05/27 03:10:53;;;;;;;9.48;4.57;;;;;;;;;;5001334;28;20085;-82
2023/05/27 03:13:19;;;;;;;8.93;4.75;;;;;;;;;;5024378;28;20042;-82
2023/05/27 03:15:45;;;;;;;12.57;5.05;;;;;;;;;;5006920;28;20485;-82
2023/05/27 03:18:11;;;;;;;16.67;5.05;;;;;;;;;;5006012;28;20745;-83
2023/05/27 03:20:37;;;;;;;13.25;4.95;;;;;;;;;;5006684;28;20057;-83
2023/05/27 03:23:03;;;;;;;9.02;4.50;;;;;;;;;;5008353;28;20101;-82
2023/05/27 03:25:29;;;;;;;11.00;4.55;;;;;;;;;;5001668;28;20545;-82
2023/05/27 03:27:55;;;;;;;10.80;4.40;;;;;;;;;;5007319;28;20054;-83
2023/05/27 03:30:22;;;;;;;9.98;5.03;;;;;;;;;;5003842;28;20108;-83
2023/05/27 03:32:48;;;;;;;9.70;4.00;;;;;;;;;;5012678;28;20054;-83
2023/05/27 03:35:14;;;;;;;9.95;4.53;;;;;;;;;;4991479;28;20038;-83
2023/05/27 03:37:40;;;;;;;13.55;5.55;;;;;;;;;;5011903;28;20049;-83
2023/05/27 03:40:06;;;;;;;9.85;4.45;;;;;;;;;;5012353;28;20045;-82
2023/05/27 03:42:32;;;;;;;9.82;4.32;;;;;;;;;;5005643;28;20155;-82
2023/05/27 03:44:58;;;;;;;11.07;4.60;;;;;;;;;;5009760;28;20041;-82
2023/05/27 03:47:24;;;;;;;10.38;4.57;;;;;;;;;;5011540;28;20050;-83
2023/05/27 03:49:50;;;;;;;8.52;4.65;;;;;;;;;;5006671;28;20049;-83
2023/05/27 03:52:16;;;;;;;11.70;4.57;;;;;;;;;;5011707;28;20057;-83
2023/05/27 03:54:42;;;;;;;9.40;4.55;;;;;;;;;;5015298;28;20049;-83
2023/05/27 03:57:08;;;;;;;12.35;5.40;;;;;;;;;;5006263;28;20129;-82
2023/05/27 03:59:34;;;;;;;17.35;5.28;;;;;;;;;;5015682;28;20394;-83
2023/05/27 04:02:01;;;;;;;8.73;4.28;;;;;;;;;;5015784;28;20041;-82
2023/05/27 04:04:27;;;;;;;9.75;4.55;;;;;;;;;;5012389;28;20060;-82
2023/05/27 04:06:55;;;;;;;6.07;3.97;;;;;;;;;;5014470;28;20398;-81
2023/05/27 04:09:21;;;;;;;8.55;4.28;;;;;;;;;;5008194;28;20046;-83
2023/05/27 04:11:47;;;;;;;9.00;4.10;;;;;;;;;;5007592;28;20049;-83
2023/05/27 04:14:13;;;;;;;10.88;4.85;;;;;;;;;;5013137;28;20384;-82
2023/05/27 04:16:41;;;;;;;10.40;5.43;;;;;;;;;;5002865;28;20397;-83
2023/05/27 04:19:07;;;;;;;9.38;4.15;;;;;;;;;;5001775;28;20393;-83
2023/05/27 04:21:33;;;;;;;11.30;4.60;;;;;;;;;;5013405;28;20073;-82
2023/05/27 04:23:59;;;;;;;10.50;4.13;;;;;;;;;;5007143;28;20045;-82
2023/05/27 04:26:26;;;;;;;10.38;4.32;;;;;;;;;;5011172;28;20049;-82
2023/05/27 04:28:52;;;;;;;8.48;4.43;;;;;;;;;;5002236;28;20117;-82
2023/05/27 04:31:18;;;;;;;10.35;4.60;;;;;;;;;;5026490;28;20042;-83
2023/05/27 04:33:45;;;;;;;11.80;4.55;;;;;;;;;;5000381;28;20042;-83
2023/05/27 04:36:11;;;;;;;8.45;4.05;;;;;;;;;;5010402;28;20132;-82
2023/05/27 04:38:38;;;;;;;8.98;4.15;;;;;;;;;;5002827;28;20100;-83
2023/05/27 04:41:04;;;;;;;8.07;3.88;;;;;;;;;;5010039;28;20108;-83
2023/05/27 04:43:30;;;;;;;10.95;4.55;;;;;;;;;;5007034;28;20544;-82
2023/05/27 04:45:59;;;;;;;10.50;4.05;;;;;;;;;;5009106;28;20060;-82
2023/05/27 04:48:26;;;;;;;12.98;4.60;;;;;;;;;;5012988;28;20454;-83
2023/05/27 04:50:54;;;;;;;8.48;4.03;;;;;;;;;;5010283;28;20042;-83
2023/05/27 04:53:21;;;;;;;10.57;4.22;;;;;;;;;;5011634;28;20077;-83
2023/05/27 04:55:47;;;;;;;8.43;3.60;;;;;;;;;;5012670;28;20088;-83
2023/05/27 04:58:13;;;;;;;11.63;4.35;;;;;;;;;;5009674;28;20442;-83
2023/05/27 05:00:49;;;;;;;10.73;3.83;;;;;;;;;;5013118;28;20141;-83
2023/05/27 05:03:20;;;;;;;11.40;4.50;;;;;;;;;;5006533;28;20049;-82
2023/05/27 05:05:48;;;;;;;9.25;4.20;;;;;;;;;;5001545;28;20045;-82
2023/05/27 05:08:14;;;;;;;11.95;4.32;;;;;;;;;;5011912;28;20128;-83
2023/05/27 05:10:40;;;;;;;14.98;4.70;;;;;;;;;;4997567;28;20394;-82
2023/05/27 05:13:06;;;;;;;7.97;3.90;;;;;;;;;;5007547;28;20490;-82
2023/05/27 05:15:32;;;;;;;13.18;5.20;;;;;;;;;;5003278;28;20049;-82
2023/05/27 05:17:58;;;;;;;11.20;4.55;;;;;;;;;;4993282;28;20124;-82
2023/05/27 05:20:25;;;;;;;11.88;4.90;;;;;;;;;;5005596;28;20494;-82
2023/05/27 05:22:51;;;;;;;12.57;4.78;;;;;;;;;;5013789;28;20056;-82
2023/05/27 05:25:17;;;;;;;11.43;4.80;;;;;;;;;;4996472;28;20053;-82
2023/05/27 05:27:43;;;;;;;8.50;3.97;;;;;;;;;;4994897;28;20484;-82
2023/05/27 05:30:09;;;;;;;10.82;4.70;;;;;;;;;;5004951;28;20034;-82
2023/05/27 05:32:35;;;;;;;10.23;4.72;;;;;;;;;;5009628;28;20082;-82
2023/05/27 05:35:01;;;;;;;12.07;4.97;;;;;;;;;;5012311;28;20069;-82
2023/05/27 05:37:27;;;;;;;12.00;4.68;;;;;;;;;;5006174;28;20125;-82
2023/05/27 05:39:57;;;;;;;13.57;5.50;;;;;;;;;;4995363;28;20130;-82
2023/05/27 05:42:24;;;;;;;12.60;4.20;;;;;;;;;;5006717;28;20084;-82
2023/05/27 05:44:52;;;;;;;9.65;4.50;;;;;;;;;;5008957;28;20470;-81
2023/05/27 05:47:18;;;;;;;11.68;5.45;;;;;;;;;;5009477;28;20052;-82
2023/05/27 05:49:44;;;;;;;13.85;5.13;;;;;;;;;;5011539;28;20121;-82
2023/05/27 05:52:10;;;;;;;12.60;5.03;;;;;;;;;;5008603;28;20463;-82
2023/05/27 05:54:36;;;;;;;11.73;5.40;;;;;;;;;;4998786;28;20078;-82
2023/05/27 05:57:02;;;;;;;15.55;5.70;;;;;;;;;;5025292;28;20092;-82
2023/05/27 05:59:28;;;;;;;12.77;4.80;;;;;;;;;;5011946;28;20046;-82
2023/05/27 06:01:54;;;;;;;14.73;5.55;;;;;;;;;;5009933;28;20046;-82
2023/05/27 06:04:20;;;;;;;13.90;4.85;;;;;;;;;;5010368;28;20456;-82
2023/05/27 06:06:46;;;;;;;13.68;5.13;;;;;;;;;;5012385;28;20049;-82
2023/05/27 06:09:12;;;;;;;11.90;4.95;;;;;;;;;;5012837;28;20137;-82
2023/05/27 06:11:39;;;;;;;13.18;5.78;;;;;;;;;;4995233;28;20046;-81
2023/05/27 06:14:05;;;;;;;14.25;5.68;;;;;;;;;;4997297;28;20056;-80
2023/05/27 06:16:31;;;;;;;12.15;4.82;;;;;;;;;;5005835;28;20085;-82
2023/05/27 06:18:57;;;;;;;13.90;5.63;;;;;;;;;;5011253;28;20041;-82
2023/05/27 06:21:23;;;;;;;12.48;5.63;;;;;;;;;;5024516;28;20041;-82
2023/05/27 06:23:49;;;;;;;16.42;5.75;;;;;;;;;;5006366;28;20038;-82
2023/05/27 06:26:15;;;;;;;16.40;5.75;;;;;;;;;;5009125;28;20038;-82
2023/05/27 06:28:41;;;;;;;17.27;6.20;;;;;;;;;;4999567;28;20054;-82
2023/05/27 06:31:07;;;;;;;13.00;5.32;;;;;;;;;;5009839;28;20056;-82
2023/05/27 06:33:33;;;;;;;16.52;6.35;;;;;;;;;;5018401;28;20053;-82
2023/05/27 06:36:00;;;;;;;12.52;6.22;;;;;;;;;;5010153;28;20046;-82
2023/05/27 06:38:26;;;;;;;10.68;5.55;;;;;;;;;;5008043;28;20058;-82
2023/05/27 06:40:52;;;;;;;15.82;6.40;;;;;;;;;;5011583;28;20042;-82
2023/05/27 06:43:18;;;;;;;14.18;6.47;;;;;;;;;;5008003;28;20045;-82
2023/05/27 06:45:44;;;;;;;13.98;6.90;;;;;;;;;;5010224;28;20050;-82
2023/05/27 06:48:10;;;;;;;14.23;6.25;;;;;;;;;;5008125;28;20042;-82
2023/05/27 06:50:36;;;;;;;15.70;6.53;;;;;;;;;;5007364;28;20060;-82
2023/05/27 06:53:02;;;;;;;15.38;6.43;;;;;;;;;;5003256;28;20432;-80
2023/05/27 06:55:28;;;;;;;16.33;6.35;;;;;;;;;;4999310;28;20038;-80
2023/05/27 06:57:54;;;;;;;13.60;6.80;;;;;;;;;;5010581;28;20069;-80
2023/05/27 07:00:20;;;;;;;15.07;5.97;;;;;;;;;;5000745;28;20402;-80
2023/05/27 07:02:46;;;;;;;15.85;6.68;;;;;;;;;;5000996;28;20161;-80
2023/05/27 07:05:12;;;;;;;12.30;6.25;;;;;;;;;;5000722;28;20648;-80
2023/05/27 07:07:38;;;;;;;13.73;6.20;;;;;;;;;;5010971;28;20103;-79
2023/05/27 07:10:04;;;;;;;13.55;5.97;;;;;;;;;;5023994;28;20229;-79
2023/05/27 07:12:30;;;;;;;14.70;6.25;;;;;;;;;;5009666;28;20124;-78
2023/05/27 07:14:56;;;;;;;15.07;6.35;;;;;;;;;;5007871;28;20532;-79
2023/05/27 07:17:22;;;;;;;14.68;5.95;;;;;;;;;;5006485;28;20453;-79
2023/05/27 07:19:48;;;;;;;12.23;6.18;;;;;;;;;;5009840;28;20428;-79
2023/05/27 07:22:14;;;;;;;11.77;5.90;;;;;;;;;;5003714;28;20053;-78
2023/05/27 07:24:40;;;;;;;12.75;5.93;;;;;;;;;;5000218;28;20046;-79
2023/05/27 07:27:06;;;;;;;14.95;5.72;;;;;;;;;;5002694;28;20056;-78
2023/05/27 07:29:33;;;;;;;17.15;6.22;;;;;;;;;;5009080;28;20042;-77
2023/05/27 07:31:59;;;;;;;16.75;6.35;;;;;;;;;;5007105;28;20045;-78
2023/05/27 07:34:25;;;;;;;15.68;5.72;;;;;;;;;;5011142;28;20061;-77
2023/05/27 07:36:51;;;;;;;14.65;5.55;;;;;;;;;;5013078;28;20034;-78
2023/05/27 07:39:17;;;;;;;15.98;5.90;;;;;;;;;;5009525;28;20577;-77
2023/05/27 07:41:43;;;;;;;14.27;5.97;;;;;;;;;;5007891;28;20383;-76
2023/05/27 07:44:09;;;;;;;12.50;5.70;;;;;;;;;;5011116;28;20083;-77
2023/05/27 07:46:38;;;;;;;12.23;5.80;;;;;;;;;;5006865;28;20058;-77
2023/05/27 07:49:05;;;;;;;11.55;5.25;;;;;;;;;;5007515;28;20423;-78
2023/05/27 07:51:31;;;;;;;12.18;5.43;;;;;;;;;;5009148;28;20054;-78
2023/05/27 07:53:57;;;;;;;13.02;5.50;;;;;;;;;;5011352;28;20581;-78
2023/05/27 07:56:23;;;;;;;15.70;6.10;;;;;;;;;;5008761;28;20497;-77
2023/05/27 07:58:49;;;;;;;14.25;6.13;;;;;;;;;;5011677;28;20048;-77
2023/05/27 08:01:16;;;;;;;12.05;5.80;;;;;;;;;;5002155;28;20558;-77
2023/05/27 08:03:42;;;;;;;14.45;6.82;;;;;;;;;;5010453;28;20168;-77
2023/05/27 08:06:08;;;;;;;10.57;5.95;;;;;;;;;;5012580;28;20061;-78
2023/05/27 08:08:34;;;;;;;14.43;5.88;;;;;;;;;;5008113;28;20042;-79
2023/05/27 08:11:00;;;;;;;11.75;6.00;;;;;;;;;;5010496;28;20057;-78
2023/05/27 08:13:26;;;;;;;13.73;5.72;;;;;;;;;;5011110;28;20100;-78
2023/05/27 08:15:52;;;;;;;11.02;5.78;;;;;;;;;;5012436;28;20520;-77
2023/05/27 08:18:18;;;;;;;15.50;7.05;;;;;;;;;;5006295;28;20030;-77
2023/05/27 08:20:44;;;;;;;11.18;5.53;;;;;;;;;;5010832;28;20065;-78
2023/05/27 08:23:10;;;;;;;11.07;6.25;;;;;;;;;;5009959;28;20421;-78
2023/05/27 08:25:36;;;;;;;14.32;6.47;;;;;;;;;;5010561;28;20038;-78
2023/05/27 08:28:03;;;;;;;10.40;5.47;;;;;;;;;;5004431;28;20046;-78
2023/05/27 08:30:33;;;;;;;12.57;5.63;;;;;;;;;;5003447;28;20096;-78
2023/05/27 08:32:59;;;;;;;11.18;5.72;;;;;;;;;;5003615;28;20042;-78
2023/05/27 08:35:25;;;;;;;13.95;5.70;;;;;;;;;;5004392;28;20065;-72
2023/05/27 08:37:51;;;;;;;15.95;6.18;;;;;;;;;;4998760;28;20050;-71
2023/05/27 08:40:18;;;;;;;20.17;5.72;;;;;;;;;;4999831;28;20057;-75
2023/05/27 08:42:44;;;;;;;10.18;5.80;;;;;;;;;;5008844;28;20129;-76
2023/05/27 08:45:11;;;;;;;14.70;5.45;;;;;;;;;;5002200;28;20050;-75
2023/05/27 08:47:38;;;;;;;14.35;5.78;;;;;;;;;;5013024;28;20060;-75
2023/05/27 08:50:04;;;;;;;14.05;7.45;;;;;;;;;;5004812;28;20485;-75
2023/05/27 08:52:30;;;;;;;11.45;5.40;;;;;;;;;;5020481;28;20129;-75
2023/05/27 08:54:57;;;;;;;10.25;5.45;;;;;;;;;;5027130;28;20057;-75
2023/05/27 08:57:28;;;;;;;15.55;6.03;;;;;;;;;;5001296;28;20137;-75
2023/05/27 08:59:54;;;;;;;14.23;5.68;;;;;;;;;;5008195;28;20119;-75
2023/05/27 09:02:21;;;;;;;11.35;5.55;;;;;;;;;;5020214;28;20041;-75
2023/05/27 09:04:47;;;;;;;12.30;5.47;;;;;;;;;;5012053;28;20073;-75
2023/05/27 09:07:13;;;;;;;13.18;5.57;;;;;;;;;;5010402;28;20405;-75
2023/05/27 09:09:40;;;;;;;13.45;5.90;;;;;;;;;;5010336;28;20042;-75
2023/05/27 09:12:08;;;;;;;10.32;6.00;;;;;;;;;;5004892;28;20112;-76
2023/05/27 09:14:37;;;;;;;11.32;5.15;;;;;;;;;;5010166;28;20057;-75
2023/05/27 09:17:08;;;;;;;12.57;5.30;;;;;;;;;;5001128;28;20041;-75
2023/05/27 09:19:34;;;;;;;12.07;5.47;;;;;;;;;;5000784;28;20490;-75
2023/05/27 09:22:00;;;;;;;12.10;5.78;;;;;;;;;;5003201;28;20056;-75
2023/05/27 09:24:26;;;;;;;14.13;5.07;;;;;;;;;;4999745;28;20045;-75
2023/05/27 09:26:52;;;;;;;10.43;5.30;;;;;;;;;;5000840;28;20077;-75
2023/05/27 09:29:19;;;;;;;13.93;5.63;;;;;;;;;;5000646;28;20065;-75
2023/05/27 09:31:45;;;;;;;13.75;5.38;;;;;;;;;;5002284;28;20050;-75
2023/05/27 09:34:12;;;;;;;11.85;5.63;;;;;;;;;;4997337;28;20092;-75
2023/05/27 09:36:48;;;;;;;12.00;5.40;;;;;;;;;;5002799;28;20862;-75
2023/05/27 09:39:15;;;;;;;14.43;5.70;;;;;;;;;;5003201;28;20053;-77
2023/05/27 09:41:41;;;;;;;12.02;5.82;;;;;;;;;;5002337;28;20168;-75
2023/05/27 09:44:08;;;;;;;12.43;5.82;;;;;;;;;;5007340;28;20054;-75
2023/05/27 09:46:34;;;;;;;12.30;5.70;;;;;;;;;;5005099;28;20046;-76
2023/05/27 09:49:02;;;;;;;12.93;5.82;;;;;;;;;;5000442;28;20604;-75
2023/05/27 09:51:28;;;;;;;10.95;5.50;;;;;;;;;;5000005;28;20402;-75
2023/05/27 09:53:57;;;;;;;13.27;5.60;;;;;;;;;;4993476;28;20074;-75
2023/05/27 09:56:26;;;;;;;11.27;5.35;;;;;;;;;;5010191;28;20476;-75
2023/05/27 09:58:53;;;;;;;13.80;5.57;;;;;;;;;;4999319;28;20430;-75
2023/05/27 10:01:19;;;;;;;10.60;5.65;;;;;;;;;;5010452;28;20046;-76
2023/05/27 10:03:46;;;;;;;12.00;5.65;;;;;;;;;;5012527;28;20148;-76
2023/05/27 10:06:13;;;;;;;13.13;6.43;;;;;;;;;;4997304;28;20108;-76
2023/05/27 10:08:39;;;;;;;11.77;6.10;;;;;;;;;;5004977;28;20076;-76
2023/05/27 10:11:06;;;;;;;13.40;6.07;;;;;;;;;;5008366;28;20413;-76
2023/05/27 10:13:32;;;;;;;13.05;5.65;;;;;;;;;;5008731;28;20038;-76
2023/05/27 10:15:58;;;;;;;11.73;5.90;;;;;;;;;;5003072;28;20490;-76
2023/05/27 10:18:25;;;;;;;15.98;5.63;;;;;;;;;;5012265;28;20478;-76
2023/05/27 10:20:52;;;;;;;10.50;5.35;;;;;;;;;;5000983;28;20068;-77
2023/05/27 10:23:28;;;;;;;13.80;5.72;;;;;;;;;;5003314;28;20551;-77
2023/05/27 10:25:57;;;;;;;13.23;6.00;;;;;;;;;;5002879;28;20145;-74
2023/05/27 10:28:29;;;;;;;12.18;6.20;;;;;;;;;;5002255;28;20042;-76
2023/05/27 10:31:30;;;;;;;9.82;5.38;;;;;;;;;;5000296;28;20910;-76
2023/05/27 10:33:57;;;;;;;10.85;5.72;;;;;;;;;;4924092;29;20052;-77
2023/05/27 10:36:28;;;;;;;14.20;5.43;;;;;;;;;;4980474;28;20100;-76
2023/05/27 10:38:59;;;;;;;12.65;6.40;;;;;;;;;;5000251;28;20132;-76
2023/05/27 10:41:25;;;;;;;11.43;5.10;;;;;;;;;;5002863;28;20482;-76
2023/05/27 10:43:57;;;;;;;16.52;6.18;;;;;;;;;;5012591;28;20046;-76
2023/05/27 10:46:24;;;;;;;13.98;5.63;;;;;;;;;;5007189;28;20054;-76
2023/05/27 10:48:50;;;;;;;13.50;5.70;;;;;;;;;;5002249;28;20449;-76
2023/05/27 10:51:16;;;;;;;11.32;5.65;;;;;;;;;;5001582;28;20053;-76
2023/05/27 10:53:42;;;;;;;12.27;5.47;;;;;;;;;;5009782;28;20046;-76
2023/05/27 10:56:08;;;;;;;14.88;6.18;;;;;;;;;;5002913;28;20057;-76
2023/05/27 10:58:38;;;;;;;9.93;5.43;;;;;;;;;;5005801;28;20041;-76
2023/05/27 11:01:09;;;;;;;12.07;6.18;;;;;;;;;;5007198;28;20108;-77
2023/05/27 11:03:35;;;;;;;13.20;5.93;;;;;;;;;;5007922;28;20058;-76
2023/05/27 11:06:03;;;;;;;14.82;5.72;;;;;;;;;;5016073;28;20054;-77
2023/05/27 11:08:29;;;;;;;16.60;6.75;;;;;;;;;;4997882;28;20045;-76
2023/05/27 11:11:02;;;;;;;10.20;5.28;;;;;;;;;;5001350;28;20092;-77
2023/05/27 11:13:31;;;;;;;12.23;5.85;;;;;;;;;;4996967;28;20058;-77
2023/05/27 11:15:57;;;;;;;10.45;5.40;;;;;;;;;;4997921;28;20077;-76
2023/05/27 11:18:23;;;;;;;11.75;5.13;;;;;;;;;;5003530;28;20058;-77
2023/05/27 11:20:49;;;;;;;14.10;5.15;;;;;;;;;;5000813;28;20037;-76
2023/05/27 11:23:16;;;;;;;12.57;6.00;;;;;;;;;;5001912;28;20046;-76
2023/05/27 11:25:45;;;;;;;11.35;5.45;;;;;;;;;;5001263;28;20046;-76
2023/05/27 11:28:16;;;;;;;10.75;5.20;;;;;;;;;;5002035;28;20037;-76
2023/05/27 11:30:42;;;;;;;11.93;6.13;;;;;;;;;;4998685;28;20054;-79
2023/05/27 11:33:08;;;;;;;14.73;5.40;;;;;;;;;;5001423;28;20050;-76
2023/05/27 11:35:34;;;;;;;11.55;6.35;;;;;;;;;;4996497;28;20108;-77
2023/05/27 11:38:02;;;;;;;15.50;5.90;;;;;;;;;;4999061;28;20046;-76
2023/05/27 11:40:38;;;;;;;12.77;5.88;;;;;;;;;;4999417;28;20481;-76
2023/05/27 11:43:04;;;;;;;13.77;5.47;;;;;;;;;;5008581;28;20433;-77
2023/05/27 11:45:36;;;;;;;13.02;5.63;;;;;;;;;;4998382;28;20049;-76
2023/05/27 11:48:02;;;;;;;11.27;5.43;;;;;;;;;;4999994;28;20052;-76
2023/05/27 11:50:29;;;;;;;12.25;5.85;;;;;;;;;;4999896;28;20101;-76
2023/05/27 11:52:56;;;;;;;13.80;6.13;;;;;;;;;;5001227;28;20104;-76
2023/05/27 11:55:22;;;;;;;14.25;5.78;;;;;;;;;;5001794;28;20054;-77
2023/05/27 11:57:49;;;;;;;15.02;6.30;;;;;;;;;;5004153;28;20042;-78
2023/05/27 12:00:15;;;;;;;11.43;5.63;;;;;;;;;;5011747;28;20088;-75
2023/05/27 12:02:42;;;;;;;14.32;6.00;;;;;;;;;;5009725;28;20069;-78
2023/05/27 12:05:09;;;;;;;14.77;6.20;;;;;;;;;;5002292;28;20077;-77
2023/05/27 12:07:39;;;;;;;13.50;6.47;;;;;;;;;;5003744;28;20042;-77
2023/05/27 12:10:05;;;;;;;12.95;6.13;;;;;;;;;;5000559;28;20669;-77
2023/05/27 12:12:34;;;;;;;12.32;5.43;;;;;;;;;;5003327;28;20049;-77
2023/05/27 12:15:00;;;;;;;20.05;6.55;;;;;;;;;;5004813;28;20378;-77
2023/05/27 12:17:26;;;;;;;12.88;6.07;;;;;;;;;;5001700;28;20045;-77
2023/05/27 12:19:52;;;;;;;14.98;6.03;;;;;;;;;;5001780;28;20042;-78
2023/05/27 12:22:18;;;;;;;15.95;5.95;;;;;;;;;;5003384;28;20375;-78
2023/05/27 12:24:44;;;;;;;11.90;5.80;;;;;;;;;;5018944;28;20099;-78
2023/05/27 12:27:10;;;;;;;15.45;6.38;;;;;;;;;;5003044;28;20371;-77
2023/05/27 12:29:36;;;;;;;13.60;5.70;;;;;;;;;;5006790;28;20049;-78
2023/05/27 12:32:03;;;;;;;13.30;5.28;;;;;;;;;;5005343;28;20057;-77
2023/05/27 12:34:29;;;;;;;12.10;6.10;;;;;;;;;;5004676;28;20041;-78
2023/05/27 12:36:55;;;;;;;13.80;6.13;;;;;;;;;;5002150;28;20043;-77
2023/05/27 12:39:22;;;;;;;15.55;6.30;;;;;;;;;;4998276;28;20426;-78
2023/05/27 12:41:48;;;;;;;12.52;5.25;;;;;;;;;;4999474;28;20371;-78
2023/05/27 12:44:14;;;;;;;12.25;6.10;;;;;;;;;;5006443;28;20468;-78
2023/05/27 12:46:41;;;;;;;14.85;6.30;;;;;;;;;;5001748;28;20085;-78
2023/05/27 12:49:07;;;;;;;11.65;5.38;;;;;;;;;;5004233;28;21716;-77
2023/05/27 12:51:33;;;;;;;15.65;6.50;;;;;;;;;;4999486;28;20078;-78
2023/05/27 12:54:00;;;;;;;13.52;5.78;;;;;;;;;;5019040;28;20053;-79
2023/05/27 12:56:25;;;;;;;15.45;6.65;;;;;;;;;;4998445;28;20045;-79
2023/05/27 12:58:52;;;;;;;13.95;6.53;;;;;;;;;;5003103;28;20088;-78
2023/05/27 13:01:18;;;;;;;14.38;5.80;;;;;;;;;;5010093;28;20390;-78
2023/05/27 13:03:44;;;;;;;14.68;6.15;;;;;;;;;;5004182;28;20046;-79
2023/05/27 13:06:10;;;;;;;13.45;6.05;;;;;;;;;;5007869;28;20045;-78
2023/05/27 13:08:36;;;;;;;11.23;5.70;;;;;;;;;;5012559;28;20042;-79
2023/05/27 13:11:02;;;;;;;12.30;5.55;;;;;;;;;;5008710;28;20496;-78
2023/05/27 13:13:28;;;;;;;14.07;5.55;;;;;;;;;;5003428;28;20157;-78
2023/05/27 13:15:55;;;;;;;12.85;5.72;;;;;;;;;;5001247;28;20050;-77
2023/05/27 13:18:21;;;;;;;15.88;5.82;;;;;;;;;;4997377;28;20098;-79
2023/05/27 13:20:47;;;;;;;14.05;5.60;;;;;;;;;;4999601;28;20050;-78
2023/05/27 13:23:13;;;;;;;14.50;6.00;;;;;;;;;;5002702;28;20058;-78
2023/05/27 13:25:39;;;;;;;16.00;6.20;;;;;;;;;;5008073;28;20050;-79
2023/05/27 13:28:05;;;;;;;13.65;5.90;;;;;;;;;;5009761;28;20413;-78
2023/05/27 13:30:31;;;;;;;15.02;6.38;;;;;;;;;;5011423;28;20048;-78
2023/05/27 13:32:58;;;;;;;14.63;5.80;;;;;;;;;;5002822;28;20073;-77
2023/05/27 13:35:24;;;;;;;16.23;6.05;;;;;;;;;;5003656;28;20064;-78
2023/05/27 13:37:50;;;;;;;16.45;6.10;;;;;;;;;;5010999;28;20180;-78
2023/05/27 13:40:16;;;;;;;14.57;5.68;;;;;;;;;;5007711;28;20042;-78
2023/05/27 13:42:42;;;;;;;12.30;5.35;;;;;;;;;;5004079;28;20045;-78
2023/05/27 13:45:09;;;;;;;13.95;6.07;;;;;;;;;;5008178;28;20050;-78
2023/05/27 13:47:38;;;;;;;17.52;5.32;;;;;;;;;;5008248;28;20065;-79
2023/05/27 13:50:05;;;;;;;11.45;5.40;;;;;;;;;;5006224;28;20678;-77
2023/05/27 13:52:31;;;;;;;17.67;6.00;;;;;;;;;;5011105;28;20397;-77
2023/05/27 13:54:57;;;;;;;14.25;5.53;;;;;;;;;;5011264;28;20041;-77
2023/05/27 13:57:23;;;;;;;16.02;5.47;;;;;;;;;;5003833;28;20050;-77
2023/05/27 13:59:49;;;;;;;10.98;5.40;;;;;;;;;;4996381;28;20041;-78
2023/05/27 14:02:16;;;;;;;12.35;6.13;;;;;;;;;;5009942;28;20048;-78
2023/05/27 14:04:42;;;;;;;12.88;5.40;;;;;;;;;;5009627;28;20044;-77
2023/05/27 14:07:09;;;;;;;12.20;5.43;;;;;;;;;;5006736;28;20038;-77
2023/05/27 14:09:35;;;;;;;12.52;5.35;;;;;;;;;;5011233;28;20092;-77
2023/05/27 14:12:02;;;;;;;15.68;6.07;;;;;;;;;;5010802;28;20493;-77
2023/05/27 14:14:28;;;;;;;17.20;5.72;;;;;;;;;;5011619;28;20050;-77
2023/05/27 14:16:54;;;;;;;16.50;5.80;;;;;;;;;;4997241;28;20034;-77
2023/05/27 14:19:20;;;;;;;17.45;6.30;;;;;;;;;;5012100;28;20084;-77
2023/05/27 14:21:47;;;;;;;14.82;6.07;;;;;;;;;;5011777;28;20104;-77
2023/05/27 14:24:13;;;;;;;11.85;6.00;;;;;;;;;;5000377;28;20082;-77
2023/05/27 14:26:40;;;;;;;15.65;5.30;;;;;;;;;;5010664;28;20077;-78
2023/05/27 14:29:06;;;;;;;13.02;5.38;;;;;;;;;;5010340;28;20042;-77